sensor_id;sensor_type;location;lat;lon;timestamp;P1;durP1;ratioP1;P2;durP2;ratioP2
20910;SDS011;10615;42.702;23.314;2023-04-10T00:00:10;12.90;;;11.20;;
20910;SDS011;10615;42.702;23.314;2023-04-10T00:01:11;12.32;;;10.30;;
20910;SDS011;10615;42.702;23.314;2023-04-10T00:02:12;12.80;;;11.10;;
20910;SDS011;10615;42.702;23.314;2023-04-10T00:03:12;13.30;;;11.15;;
20910;SDS011;10615;42.702;23.314;2023-04-10T00:04:13;15.55;;;10.52;;
20910;SDS011;10615;42.702;23.314;2023-04-10T00:05:14;13.48;;;11.10;;
20910;SDS011;10615;42.702;23.314;2023-04-10T00:06:15;12.80;;;10.77;;
20910;SDS011;10615;42.702;23.314;2023-04-10T00:07:15;12.90;;;10.30;;
20910;SDS011;10615;42.702;23.314;2023-04-10T00:08:16;12.85;;;10.77;;
20910;SDS011;10615;42.702;23.314;2023-04-10T00:09:17;11.57;;;9.60;;
20910;SDS011;10615;42.702;23.314;2023-04-10T00:10:18;13.98;;;10.63;;
20910;SDS011;10615;42.702;23.314;2023-04-10T00:11:19;12.30;;;10.05;;
20910;SDS011;10615;42.702;23.314;2023-04-10T00:12:19;12.43;;;10.25;;
20910;SDS011;10615;42.702;23.314;2023-04-10T00:13:20;11.45;;;9.75;;
20910;SDS011;10615;42.702;23.314;2023-04-10T00:14:21;10.98;;;9.75;;
20910;SDS011;10615;42.702;23.314;2023-04-10T00:15:23;11.82;;;9.50;;
20910;SDS011;10615;42.702;23.314;2023-04-10T00:16:24;10.75;;;8.82;;
20910;SDS011;10615;42.702;23.314;2023-04-10T00:17:24;10.95;;;9.02;;
20910;SDS011;10615;42.702;23.314;2023-04-10T00:18:25;12.23;;;9.35;;
20910;SDS011;10615;42.702;23.314;2023-04-10T00:19:25;11.02;;;9.13;;
20910;SDS011;10615;42.702;23.314;2023-04-10T00:20:26;9.57;;;8.25;;
20910;SDS011;10615;42.702;23.314;2023-04-10T00:21:27;10.30;;;8.98;;
20910;SDS011;10615;42.702;23.314;2023-04-10T00:22:27;9.73;;;8.70;;
20910;SDS011;10615;42.702;23.314;2023-04-10T00:23:28;9.60;;;8.48;;
20910;SDS011;10615;42.702;23.314;2023-04-10T00:24:31;10.15;;;8.80;;
20910;SDS011;10615;42.702;23.314;2023-04-10T00:25:32;12.13;;;8.55;;
20910;SDS011;10615;42.702;23.314;2023-04-10T00:26:33;10.93;;;8.40;;
20910;SDS011;10615;42.702;23.314;2023-04-10T00:27:34;9.68;;;8.05;;
20910;SDS011;10615;42.702;23.314;2023-04-10T00:28:35;9.00;;;7.82;;
20910;SDS011;10615;42.702;23.314;2023-04-10T00:29:37;9.43;;;8.07;;
20910;SDS011;10615;42.702;23.314;2023-04-10T00:30:37;9.10;;;8.07;;
20910;SDS011;10615;42.702;23.314;2023-04-10T00:31:38;10.15;;;7.97;;
20910;SDS011;10615;42.702;23.314;2023-04-10T00:32:38;7.97;;;7.18;;
20910;SDS011;10615;42.702;23.314;2023-04-10T00:33:40;8.73;;;7.60;;
20910;SDS011;10615;42.702;23.314;2023-04-10T00:34:40;8.55;;;7.47;;
20910;SDS011;10615;42.702;23.314;2023-04-10T00:35:41;8.68;;;7.60;;
20910;SDS011;10615;42.702;23.314;2023-04-10T00:36:42;10.00;;;7.38;;
20910;SDS011;10615;42.702;23.314;2023-04-10T00:37:44;8.55;;;6.93;;
20910;SDS011;10615;42.702;23.314;2023-04-10T00:38:44;8.02;;;7.22;;
20910;SDS011;10615;42.702;23.314;2023-04-10T00:39:46;7.97;;;6.97;;
20910;SDS011;10615;42.702;23.314;2023-04-10T00:40:47;7.20;;;6.47;;
20910;SDS011;10615;42.702;23.314;2023-04-10T00:41:47;7.20;;;6.43;;
20910;SDS011;10615;42.702;23.314;2023-04-10T00:42:48;7.85;;;7.03;;
20910;SDS011;10615;42.702;23.314;2023-04-10T00:43:49;7.50;;;6.30;;
20910;SDS011;10615;42.702;23.314;2023-04-10T00:44:49;8.18;;;6.82;;
20910;SDS011;10615;42.702;23.314;2023-04-10T00:45:50;7.82;;;7.03;;
20910;SDS011;10615;42.702;23.314;2023-04-10T00:46:51;7.00;;;6.30;;
20910;SDS011;10615;42.702;23.314;2023-04-10T00:47:51;8.02;;;6.68;;
20910;SDS011;10615;42.702;23.314;2023-04-10T00:48:53;6.90;;;6.20;;
20910;SDS011;10615;42.702;23.314;2023-04-10T00:49:55;7.38;;;6.47;;
20910;SDS011;10615;42.702;23.314;2023-04-10T00:50:56;7.88;;;7.07;;
20910;SDS011;10615;42.702;23.314;2023-04-10T00:51:56;7.15;;;6.05;;
20910;SDS011;10615;42.702;23.314;2023-04-10T00:52:57;8.13;;;6.60;;
20910;SDS011;10615;42.702;23.314;2023-04-10T00:53:58;9.02;;;6.88;;
20910;SDS011;10615;42.702;23.314;2023-04-10T00:55:01;9.13;;;6.78;;
20910;SDS011;10615;42.702;23.314;2023-04-10T00:56:02;8.25;;;6.90;;
20910;SDS011;10615;42.702;23.314;2023-04-10T00:57:03;7.95;;;6.68;;
20910;SDS011;10615;42.702;23.314;2023-04-10T00:58:04;7.45;;;6.57;;
20910;SDS011;10615;42.702;23.314;2023-04-10T00:59:05;8.10;;;6.97;;
20910;SDS011;10615;42.702;23.314;2023-04-10T01:00:06;7.75;;;6.93;;
20910;SDS011;10615;42.702;23.314;2023-04-10T01:01:07;7.70;;;6.90;;
20910;SDS011;10615;42.702;23.314;2023-04-10T01:02:08;7.93;;;7.03;;
20910;SDS011;10615;42.702;23.314;2023-04-10T01:03:11;9.15;;;6.95;;
20910;SDS011;10615;42.702;23.314;2023-04-10T01:04:14;7.43;;;6.70;;
20910;SDS011;10615;42.702;23.314;2023-04-10T01:05:15;8.00;;;6.70;;
20910;SDS011;10615;42.702;23.314;2023-04-10T01:07:48;8.00;;;7.20;;
20910;SDS011;10615;42.702;23.314;2023-04-10T01:09:06;7.57;;;6.78;;
20910;SDS011;10615;42.702;23.314;2023-04-10T01:13:57;8.50;;;7.03;;
20910;SDS011;10615;42.702;23.314;2023-04-10T01:15:21;8.27;;;7.45;;
20910;SDS011;10615;42.702;23.314;2023-04-10T01:16:25;7.28;;;6.55;;
20910;SDS011;10615;42.702;23.314;2023-04-10T01:17:34;8.50;;;7.60;;
20910;SDS011;10615;42.702;23.314;2023-04-10T01:18:56;8.05;;;7.25;;
20910;SDS011;10615;42.702;23.314;2023-04-10T01:20:24;8.07;;;7.10;;
20910;SDS011;10615;42.702;23.314;2023-04-10T01:21:28;7.47;;;6.75;;
20910;SDS011;10615;42.702;23.314;2023-04-10T01:25:29;8.45;;;7.38;;
20910;SDS011;10615;42.702;23.314;2023-04-10T01:29:18;7.70;;;6.90;;
20910;SDS011;10615;42.702;23.314;2023-04-10T01:30:20;8.05;;;7.05;;
20910;SDS011;10615;42.702;23.314;2023-04-10T01:32:49;7.88;;;7.07;;
20910;SDS011;10615;42.702;23.314;2023-04-10T01:33:58;8.85;;;7.20;;
20910;SDS011;10615;42.702;23.314;2023-04-10T01:35:04;7.78;;;6.95;;
20910;SDS011;10615;42.702;23.314;2023-04-10T01:36:07;9.23;;;7.57;;
20910;SDS011;10615;42.702;23.314;2023-04-10T01:37:15;8.48;;;7.68;;
20910;SDS011;10615;42.702;23.314;2023-04-10T01:38:19;8.05;;;7.25;;
20910;SDS011;10615;42.702;23.314;2023-04-10T01:39:23;8.80;;;7.90;;
20910;SDS011;10615;42.702;23.314;2023-04-10T01:40:27;9.90;;;8.00;;
20910;SDS011;10615;42.702;23.314;2023-04-10T01:41:29;8.48;;;7.57;;
20910;SDS011;10615;42.702;23.314;2023-04-10T01:42:33;9.75;;;8.15;;
20910;SDS011;10615;42.702;23.314;2023-04-10T01:43:37;9.90;;;8.07;;
20910;SDS011;10615;42.702;23.314;2023-04-10T01:44:41;8.88;;;7.97;;
20910;SDS011;10615;42.702;23.314;2023-04-10T01:45:45;8.73;;;7.82;;
20910;SDS011;10615;42.702;23.314;2023-04-10T01:46:48;10.40;;;7.85;;
20910;SDS011;10615;42.702;23.314;2023-04-10T01:47:49;9.70;;;7.85;;
20910;SDS011;10615;42.702;23.314;2023-04-10T01:48:50;9.10;;;8.13;;
20910;SDS011;10615;42.702;23.314;2023-04-10T01:49:53;9.38;;;8.38;;
20910;SDS011;10615;42.702;23.314;2023-04-10T01:50:55;10.52;;;8.35;;
20910;SDS011;10615;42.702;23.314;2023-04-10T01:51:57;9.18;;;8.23;;
20910;SDS011;10615;42.702;23.314;2023-04-10T01:52:59;9.75;;;8.15;;
20910;SDS011;10615;42.702;23.314;2023-04-10T01:54:03;9.75;;;8.50;;
20910;SDS011;10615;42.702;23.314;2023-04-10T01:55:05;10.20;;;8.77;;
20910;SDS011;10615;42.702;23.314;2023-04-10T01:56:07;9.70;;;8.30;;
20910;SDS011;10615;42.702;23.314;2023-04-10T01:57:08;9.93;;;8.35;;
20910;SDS011;10615;42.702;23.314;2023-04-10T01:58:13;9.88;;;8.57;;
20910;SDS011;10615;42.702;23.314;2023-04-10T01:59:14;10.18;;;8.48;;
20910;SDS011;10615;42.702;23.314;2023-04-10T02:00:15;9.98;;;8.35;;
20910;SDS011;10615;42.702;23.314;2023-04-10T02:01:19;9.80;;;8.43;;
20910;SDS011;10615;42.702;23.314;2023-04-10T02:02:20;9.95;;;8.73;;
20910;SDS011;10615;42.702;23.314;2023-04-10T02:03:21;10.73;;;9.02;;
20910;SDS011;10615;42.702;23.314;2023-04-10T02:04:22;9.30;;;8.40;;
20910;SDS011;10615;42.702;23.314;2023-04-10T02:05:23;10.55;;;9.30;;
20910;SDS011;10615;42.702;23.314;2023-04-10T02:10:03;10.48;;;9.38;;
20910;SDS011;10615;42.702;23.314;2023-04-10T02:10:49;12.88;;;8.82;;
20910;SDS011;10615;42.702;23.314;2023-04-10T02:11:58;11.02;;;9.30;;
20910;SDS011;10615;42.702;23.314;2023-04-10T02:13:05;10.02;;;8.73;;
20910;SDS011;10615;42.702;23.314;2023-04-10T02:14:10;9.20;;;8.25;;
20910;SDS011;10615;42.702;23.314;2023-04-10T02:15:13;8.95;;;8.05;;
20910;SDS011;10615;42.702;23.314;2023-04-10T02:16:18;11.25;;;8.60;;
20910;SDS011;10615;42.702;23.314;2023-04-10T02:17:22;9.05;;;8.15;;
20910;SDS011;10615;42.702;23.314;2023-04-10T02:18:27;9.90;;;8.63;;
20910;SDS011;10615;42.702;23.314;2023-04-10T02:19:30;9.57;;;8.52;;
20910;SDS011;10615;42.702;23.314;2023-04-10T02:20:31;9.45;;;8.40;;
20910;SDS011;10615;42.702;23.314;2023-04-10T02:21:33;9.18;;;8.20;;
20910;SDS011;10615;42.702;23.314;2023-04-10T02:22:34;9.90;;;8.55;;
20910;SDS011;10615;42.702;23.314;2023-04-10T02:23:36;10.57;;;8.80;;
20910;SDS011;10615;42.702;23.314;2023-04-10T02:24:37;9.48;;;8.48;;
20910;SDS011;10615;42.702;23.314;2023-04-10T02:25:37;9.18;;;8.27;;
20910;SDS011;10615;42.702;23.314;2023-04-10T02:26:47;10.43;;;8.30;;
20910;SDS011;10615;42.702;23.314;2023-04-10T02:27:49;8.98;;;8.07;;
20910;SDS011;10615;42.702;23.314;2023-04-10T02:28:50;10.07;;;8.82;;
20910;SDS011;10615;42.702;23.314;2023-04-10T02:29:51;9.35;;;8.35;;
20910;SDS011;10615;42.702;23.314;2023-04-10T02:30:52;11.05;;;8.70;;
20910;SDS011;10615;42.702;23.314;2023-04-10T02:31:52;9.57;;;8.20;;
20910;SDS011;10615;42.702;23.314;2023-04-10T02:32:53;9.82;;;8.38;;
20910;SDS011;10615;42.702;23.314;2023-04-10T02:33:54;9.70;;;8.60;;
20910;SDS011;10615;42.702;23.314;2023-04-10T02:34:55;9.13;;;8.23;;
20910;SDS011;10615;42.702;23.314;2023-04-10T02:35:56;8.85;;;7.95;;
20910;SDS011;10615;42.702;23.314;2023-04-10T02:36:57;10.32;;;8.20;;
20910;SDS011;10615;42.702;23.314;2023-04-10T02:37:57;8.95;;;7.85;;
20910;SDS011;10615;42.702;23.314;2023-04-10T02:38:58;10.38;;;8.38;;
20910;SDS011;10615;42.702;23.314;2023-04-10T02:39:59;8.93;;;8.02;;
20910;SDS011;10615;42.702;23.314;2023-04-10T02:41:00;10.20;;;8.35;;
20910;SDS011;10615;42.702;23.314;2023-04-10T02:42:00;9.15;;;8.25;;
20910;SDS011;10615;42.702;23.314;2023-04-10T02:43:01;9.68;;;8.68;;
20910;SDS011;10615;42.702;23.314;2023-04-10T02:44:02;9.65;;;8.65;;
20910;SDS011;10615;42.702;23.314;2023-04-10T02:45:02;9.40;;;8.40;;
20910;SDS011;10615;42.702;23.314;2023-04-10T02:46:03;9.88;;;8.88;;
20910;SDS011;10615;42.702;23.314;2023-04-10T02:47:04;9.77;;;8.77;;
20910;SDS011;10615;42.702;23.314;2023-04-10T02:48:06;11.93;;;8.73;;
20910;SDS011;10615;42.702;23.314;2023-04-10T02:49:06;10.45;;;9.18;;
20910;SDS011;10615;42.702;23.314;2023-04-10T02:50:07;10.93;;;9.35;;
20910;SDS011;10615;42.702;23.314;2023-04-10T02:51:08;10.50;;;9.00;;
20910;SDS011;10615;42.702;23.314;2023-04-10T02:52:09;11.13;;;9.07;;
20910;SDS011;10615;42.702;23.314;2023-04-10T02:53:12;10.75;;;9.15;;
20910;SDS011;10615;42.702;23.314;2023-04-10T02:54:13;9.98;;;8.80;;
20910;SDS011;10615;42.702;23.314;2023-04-10T02:55:14;10.40;;;9.20;;
20910;SDS011;10615;42.702;23.314;2023-04-10T02:56:15;11.75;;;9.23;;
20910;SDS011;10615;42.702;23.314;2023-04-10T02:57:17;10.27;;;9.27;;
20910;SDS011;10615;42.702;23.314;2023-04-10T02:58:18;10.75;;;9.40;;
20910;SDS011;10615;42.702;23.314;2023-04-10T02:59:19;10.65;;;9.55;;
20910;SDS011;10615;42.702;23.314;2023-04-10T03:00:21;11.77;;;8.98;;
20910;SDS011;10615;42.702;23.314;2023-04-10T03:01:22;10.45;;;9.30;;
20910;SDS011;10615;42.702;23.314;2023-04-10T03:02:22;11.05;;;8.65;;
20910;SDS011;10615;42.702;23.314;2023-04-10T03:03:23;9.85;;;8.73;;
20910;SDS011;10615;42.702;23.314;2023-04-10T03:04:24;10.65;;;9.00;;
20910;SDS011;10615;42.702;23.314;2023-04-10T03:05:24;9.93;;;8.93;;
20910;SDS011;10615;42.702;23.314;2023-04-10T03:06:26;9.57;;;8.57;;
20910;SDS011;10615;42.702;23.314;2023-04-10T03:07:26;10.18;;;9.10;;
20910;SDS011;10615;42.702;23.314;2023-04-10T03:08:27;9.93;;;8.73;;
20910;SDS011;10615;42.702;23.314;2023-04-10T03:09:29;10.63;;;9.27;;
20910;SDS011;10615;42.702;23.314;2023-04-10T03:10:29;10.00;;;9.00;;
20910;SDS011;10615;42.702;23.314;2023-04-10T03:11:30;12.68;;;9.50;;
20910;SDS011;10615;42.702;23.314;2023-04-10T03:12:31;10.60;;;9.50;;
20910;SDS011;10615;42.702;23.314;2023-04-10T03:13:32;10.88;;;9.77;;
20910;SDS011;10615;42.702;23.314;2023-04-10T03:14:33;10.95;;;9.85;;
20910;SDS011;10615;42.702;23.314;2023-04-10T03:15:33;11.57;;;9.77;;
20910;SDS011;10615;42.702;23.314;2023-04-10T03:16:34;11.50;;;9.80;;
20910;SDS011;10615;42.702;23.314;2023-04-10T03:17:35;12.73;;;9.55;;
20910;SDS011;10615;42.702;23.314;2023-04-10T03:18:36;10.68;;;9.52;;
20910;SDS011;10615;42.702;23.314;2023-04-10T03:19:36;10.85;;;9.50;;
20910;SDS011;10615;42.702;23.314;2023-04-10T03:20:37;13.45;;;11.05;;
20910;SDS011;10615;42.702;23.314;2023-04-10T03:21:38;13.40;;;11.30;;
20910;SDS011;10615;42.702;23.314;2023-04-10T03:22:38;13.35;;;11.48;;
20910;SDS011;10615;42.702;23.314;2023-04-10T03:23:40;12.93;;;11.00;;
20910;SDS011;10615;42.702;23.314;2023-04-10T03:24:40;12.05;;;9.93;;
20910;SDS011;10615;42.702;23.314;2023-04-10T03:25:41;12.00;;;9.75;;
20910;SDS011;10615;42.702;23.314;2023-04-10T03:26:42;12.82;;;10.25;;
20910;SDS011;10615;42.702;23.314;2023-04-10T03:27:42;12.77;;;10.10;;
20910;SDS011;10615;42.702;23.314;2023-04-10T03:28:43;12.52;;;11.00;;
20910;SDS011;10615;42.702;23.314;2023-04-10T03:29:44;13.68;;;11.05;;
20910;SDS011;10615;42.702;23.314;2023-04-10T03:30:44;14.05;;;11.52;;
20910;SDS011;10615;42.702;23.314;2023-04-10T03:31:45;13.52;;;11.32;;
20910;SDS011;10615;42.702;23.314;2023-04-10T03:32:46;13.20;;;11.80;;
20910;SDS011;10615;42.702;23.314;2023-04-10T03:33:46;12.70;;;11.10;;
20910;SDS011;10615;42.702;23.314;2023-04-10T03:34:47;14.68;;;12.18;;
20910;SDS011;10615;42.702;23.314;2023-04-10T03:35:48;14.20;;;11.95;;
20910;SDS011;10615;42.702;23.314;2023-04-10T03:36:49;14.02;;;12.02;;
20910;SDS011;10615;42.702;23.314;2023-04-10T03:37:50;15.52;;;12.35;;
20910;SDS011;10615;42.702;23.314;2023-04-10T03:38:51;16.50;;;11.95;;
20910;SDS011;10615;42.702;23.314;2023-04-10T03:39:52;15.45;;;12.60;;
20910;SDS011;10615;42.702;23.314;2023-04-10T03:40:52;15.73;;;12.98;;
20910;SDS011;10615;42.702;23.314;2023-04-10T03:41:53;15.27;;;12.38;;
20910;SDS011;10615;42.702;23.314;2023-04-10T03:42:55;17.08;;;13.18;;
20910;SDS011;10615;42.702;23.314;2023-04-10T03:43:55;18.42;;;14.52;;
20910;SDS011;10615;42.702;23.314;2023-04-10T03:44:56;18.13;;;14.18;;
20910;SDS011;10615;42.702;23.314;2023-04-10T03:45:57;15.10;;;12.30;;
20910;SDS011;10615;42.702;23.314;2023-04-10T03:46:57;14.05;;;12.55;;
20910;SDS011;10615;42.702;23.314;2023-04-10T03:47:58;14.48;;;11.70;;
20910;SDS011;10615;42.702;23.314;2023-04-10T03:48:59;14.07;;;11.88;;
20910;SDS011;10615;42.702;23.314;2023-04-10T03:49:59;14.77;;;12.10;;
20910;SDS011;10615;42.702;23.314;2023-04-10T03:51:01;16.73;;;11.57;;
20910;SDS011;10615;42.702;23.314;2023-04-10T03:52:03;13.45;;;10.77;;
20910;SDS011;10615;42.702;23.314;2023-04-10T03:53:03;13.52;;;11.35;;
20910;SDS011;10615;42.702;23.314;2023-04-10T03:54:04;13.93;;;11.15;;
20910;SDS011;10615;42.702;23.314;2023-04-10T03:55:05;13.95;;;11.10;;
20910;SDS011;10615;42.702;23.314;2023-04-10T03:56:06;15.65;;;12.38;;
20910;SDS011;10615;42.702;23.314;2023-04-10T03:57:07;14.15;;;11.52;;
20910;SDS011;10615;42.702;23.314;2023-04-10T03:58:08;15.50;;;12.48;;
20910;SDS011;10615;42.702;23.314;2023-04-10T03:59:08;15.30;;;12.50;;
20910;SDS011;10615;42.702;23.314;2023-04-10T04:00:09;16.42;;;12.27;;
20910;SDS011;10615;42.702;23.314;2023-04-10T04:01:11;15.57;;;12.23;;
20910;SDS011;10615;42.702;23.314;2023-04-10T04:02:12;16.08;;;11.65;;
20910;SDS011;10615;42.702;23.314;2023-04-10T04:03:12;15.25;;;11.27;;
20910;SDS011;10615;42.702;23.314;2023-04-10T04:04:13;14.50;;;11.45;;
20910;SDS011;10615;42.702;23.314;2023-04-10T04:05:14;15.43;;;12.05;;
20910;SDS011;10615;42.702;23.314;2023-04-10T04:06:15;16.67;;;12.57;;
20910;SDS011;10615;42.702;23.314;2023-04-10T04:07:16;14.05;;;11.60;;
20910;SDS011;10615;42.702;23.314;2023-04-10T04:08:16;14.82;;;11.63;;
20910;SDS011;10615;42.702;23.314;2023-04-10T04:09:17;16.33;;;12.82;;
20910;SDS011;10615;42.702;23.314;2023-04-10T04:10:18;14.93;;;11.50;;
20910;SDS011;10615;42.702;23.314;2023-04-10T04:11:18;15.50;;;12.02;;
20910;SDS011;10615;42.702;23.314;2023-04-10T04:12:19;14.90;;;12.10;;
20910;SDS011;10615;42.702;23.314;2023-04-10T04:13:20;15.43;;;12.02;;
20910;SDS011;10615;42.702;23.314;2023-04-10T04:14:21;14.90;;;11.88;;
20910;SDS011;10615;42.702;23.314;2023-04-10T04:15:22;17.20;;;13.13;;
20910;SDS011;10615;42.702;23.314;2023-04-10T04:16:23;15.63;;;12.77;;
20910;SDS011;10615;42.702;23.314;2023-04-10T04:17:24;17.98;;;13.55;;
20910;SDS011;10615;42.702;23.314;2023-04-10T04:18:25;17.50;;;13.70;;
20910;SDS011;10615;42.702;23.314;2023-04-10T04:19:25;15.95;;;13.35;;
20910;SDS011;10615;42.702;23.314;2023-04-10T04:20:26;15.18;;;12.45;;
20910;SDS011;10615;42.702;23.314;2023-04-10T04:21:27;16.45;;;12.48;;
20910;SDS011;10615;42.702;23.314;2023-04-10T04:22:28;16.02;;;13.23;;
20910;SDS011;10615;42.702;23.314;2023-04-10T04:23:28;15.45;;;13.18;;
20910;SDS011;10615;42.702;23.314;2023-04-10T04:24:29;16.92;;;13.38;;
20910;SDS011;10615;42.702;23.314;2023-04-10T04:25:30;17.88;;;12.68;;
20910;SDS011;10615;42.702;23.314;2023-04-10T04:26:31;15.93;;;13.25;;
20910;SDS011;10615;42.702;23.314;2023-04-10T04:27:32;18.38;;;13.23;;
20910;SDS011;10615;42.702;23.314;2023-04-10T04:28:33;17.02;;;13.15;;
20910;SDS011;10615;42.702;23.314;2023-04-10T04:29:33;17.67;;;13.85;;
20910;SDS011;10615;42.702;23.314;2023-04-10T04:30:34;16.73;;;13.48;;
20910;SDS011;10615;42.702;23.314;2023-04-10T04:31:35;18.40;;;13.93;;
20910;SDS011;10615;42.702;23.314;2023-04-10T04:32:36;19.45;;;14.38;;
20910;SDS011;10615;42.702;23.314;2023-04-10T04:33:36;20.40;;;14.05;;
20910;SDS011;10615;42.702;23.314;2023-04-10T04:34:37;17.52;;;14.25;;
20910;SDS011;10615;42.702;23.314;2023-04-10T04:35:37;18.52;;;14.75;;
20910;SDS011;10615;42.702;23.314;2023-04-10T04:36:38;23.13;;;15.13;;
20910;SDS011;10615;42.702;23.314;2023-04-10T04:37:39;18.85;;;14.93;;
20910;SDS011;10615;42.702;23.314;2023-04-10T04:38:39;19.20;;;15.52;;
20910;SDS011;10615;42.702;23.314;2023-04-10T04:39:40;21.10;;;15.13;;
20910;SDS011;10615;42.702;23.314;2023-04-10T04:40:41;19.17;;;15.75;;
20910;SDS011;10615;42.702;23.314;2023-04-10T04:41:42;20.25;;;15.43;;
20910;SDS011;10615;42.702;23.314;2023-04-10T04:42:42;22.02;;;16.08;;
20910;SDS011;10615;42.702;23.314;2023-04-10T04:43:43;21.05;;;16.52;;
20910;SDS011;10615;42.702;23.314;2023-04-10T04:44:44;17.63;;;14.20;;
20910;SDS011;10615;42.702;23.314;2023-04-10T04:45:45;20.58;;;15.48;;
20910;SDS011;10615;42.702;23.314;2023-04-10T04:46:45;20.90;;;15.27;;
20910;SDS011;10615;42.702;23.314;2023-04-10T04:47:46;20.40;;;15.13;;
20910;SDS011;10615;42.702;23.314;2023-04-10T04:48:47;20.67;;;15.30;;
20910;SDS011;10615;42.702;23.314;2023-04-10T04:49:47;19.25;;;15.00;;
20910;SDS011;10615;42.702;23.314;2023-04-10T04:50:48;20.08;;;15.23;;
20910;SDS011;10615;42.702;23.314;2023-04-10T04:51:49;19.88;;;14.90;;
20910;SDS011;10615;42.702;23.314;2023-04-10T04:52:49;19.30;;;15.18;;
20910;SDS011;10615;42.702;23.314;2023-04-10T04:53:50;19.15;;;14.73;;
20910;SDS011;10615;42.702;23.314;2023-04-10T04:54:50;20.00;;;14.73;;
20910;SDS011;10615;42.702;23.314;2023-04-10T04:55:51;19.00;;;15.23;;
20910;SDS011;10615;42.702;23.314;2023-04-10T04:56:52;17.63;;;13.30;;
20910;SDS011;10615;42.702;23.314;2023-04-10T04:57:53;16.92;;;13.45;;
20910;SDS011;10615;42.702;23.314;2023-04-10T04:58:53;18.58;;;14.32;;
20910;SDS011;10615;42.702;23.314;2023-04-10T04:59:54;18.23;;;13.80;;
20910;SDS011;10615;42.702;23.314;2023-04-10T05:00:55;20.92;;;14.80;;
20910;SDS011;10615;42.702;23.314;2023-04-10T05:01:56;19.80;;;14.75;;
20910;SDS011;10615;42.702;23.314;2023-04-10T05:02:57;18.08;;;14.80;;
20910;SDS011;10615;42.702;23.314;2023-04-10T05:03:58;18.60;;;14.60;;
20910;SDS011;10615;42.702;23.314;2023-04-10T05:04:58;18.63;;;14.23;;
20910;SDS011;10615;42.702;23.314;2023-04-10T05:05:59;17.42;;;14.15;;
20910;SDS011;10615;42.702;23.314;2023-04-10T05:07:00;17.73;;;14.43;;
20910;SDS011;10615;42.702;23.314;2023-04-10T05:08:01;18.25;;;14.40;;
20910;SDS011;10615;42.702;23.314;2023-04-10T05:09:02;17.75;;;14.13;;
20910;SDS011;10615;42.702;23.314;2023-04-10T05:10:03;18.70;;;14.05;;
20910;SDS011;10615;42.702;23.314;2023-04-10T05:11:04;16.63;;;14.18;;
20910;SDS011;10615;42.702;23.314;2023-04-10T05:12:05;15.45;;;13.23;;
20910;SDS011;10615;42.702;23.314;2023-04-10T05:13:06;17.30;;;13.45;;
20910;SDS011;10615;42.702;23.314;2023-04-10T05:14:06;16.15;;;13.27;;
20910;SDS011;10615;42.702;23.314;2023-04-10T05:15:07;15.85;;;13.25;;
20910;SDS011;10615;42.702;23.314;2023-04-10T05:16:08;18.55;;;13.70;;
20910;SDS011;10615;42.702;23.314;2023-04-10T05:17:09;16.67;;;14.02;;
20910;SDS011;10615;42.702;23.314;2023-04-10T05:18:10;18.67;;;14.57;;
20910;SDS011;10615;42.702;23.314;2023-04-10T05:19:12;18.33;;;14.00;;
20910;SDS011;10615;42.702;23.314;2023-04-10T05:20:13;18.25;;;14.52;;
20910;SDS011;10615;42.702;23.314;2023-04-10T05:21:14;16.25;;;14.02;;
20910;SDS011;10615;42.702;23.314;2023-04-10T05:22:15;19.27;;;15.35;;
20910;SDS011;10615;42.702;23.314;2023-04-10T05:23:16;20.42;;;14.55;;
20910;SDS011;10615;42.702;23.314;2023-04-10T05:24:16;18.38;;;14.40;;
20910;SDS011;10615;42.702;23.314;2023-04-10T05:25:17;18.58;;;15.05;;
20910;SDS011;10615;42.702;23.314;2023-04-10T05:26:18;18.05;;;15.30;;
20910;SDS011;10615;42.702;23.314;2023-04-10T05:27:19;18.83;;;14.77;;
20910;SDS011;10615;42.702;23.314;2023-04-10T05:28:20;17.92;;;14.43;;
20910;SDS011;10615;42.702;23.314;2023-04-10T05:29:22;17.02;;;15.20;;
20910;SDS011;10615;42.702;23.314;2023-04-10T05:30:23;18.30;;;15.50;;
20910;SDS011;10615;42.702;23.314;2023-04-10T05:31:24;18.23;;;14.65;;
20910;SDS011;10615;42.702;23.314;2023-04-10T05:32:25;17.35;;;15.50;;
20910;SDS011;10615;42.702;23.314;2023-04-10T05:33:26;19.58;;;14.32;;
20910;SDS011;10615;42.702;23.314;2023-04-10T05:34:26;20.83;;;18.13;;
20910;SDS011;10615;42.702;23.314;2023-04-10T05:35:27;19.33;;;17.08;;
20910;SDS011;10615;42.702;23.314;2023-04-10T05:36:28;25.25;;;20.88;;
20910;SDS011;10615;42.702;23.314;2023-04-10T05:37:28;23.55;;;19.55;;
20910;SDS011;10615;42.702;23.314;2023-04-10T05:38:29;20.35;;;17.88;;
20910;SDS011;10615;42.702;23.314;2023-04-10T05:39:30;30.48;;;24.40;;
20910;SDS011;10615;42.702;23.314;2023-04-10T05:40:31;20.70;;;18.33;;
20910;SDS011;10615;42.702;23.314;2023-04-10T05:41:31;19.17;;;16.05;;
20910;SDS011;10615;42.702;23.314;2023-04-10T05:42:32;17.85;;;15.55;;
20910;SDS011;10615;42.702;23.314;2023-04-10T05:43:33;16.55;;;14.13;;
20910;SDS011;10615;42.702;23.314;2023-04-10T05:44:33;18.25;;;14.90;;
20910;SDS011;10615;42.702;23.314;2023-04-10T05:45:34;20.10;;;14.95;;
20910;SDS011;10615;42.702;23.314;2023-04-10T05:46:35;15.60;;;13.80;;
20910;SDS011;10615;42.702;23.314;2023-04-10T05:47:36;16.30;;;13.88;;
20910;SDS011;10615;42.702;23.314;2023-04-10T05:48:36;16.20;;;13.68;;
20910;SDS011;10615;42.702;23.314;2023-04-10T05:49:37;13.98;;;11.65;;
20910;SDS011;10615;42.702;23.314;2023-04-10T05:50:38;13.05;;;11.73;;
20910;SDS011;10615;42.702;23.314;2023-04-10T05:51:39;15.45;;;13.02;;
20910;SDS011;10615;42.702;23.314;2023-04-10T05:52:40;24.90;;;20.25;;
20910;SDS011;10615;42.702;23.314;2023-04-10T05:53:40;32.95;;;27.45;;
20910;SDS011;10615;42.702;23.314;2023-04-10T05:54:41;28.08;;;22.02;;
20910;SDS011;10615;42.702;23.314;2023-04-10T05:55:42;28.30;;;20.13;;
20910;SDS011;10615;42.702;23.314;2023-04-10T05:56:43;55.00;;;46.53;;
20910;SDS011;10615;42.702;23.314;2023-04-10T05:57:43;22.83;;;20.38;;
20910;SDS011;10615;42.702;23.314;2023-04-10T05:58:44;22.48;;;18.55;;
20910;SDS011;10615;42.702;23.314;2023-04-10T05:59:45;20.63;;;18.45;;
20910;SDS011;10615;42.702;23.314;2023-04-10T06:00:45;22.70;;;19.17;;
20910;SDS011;10615;42.702;23.314;2023-04-10T06:01:46;20.52;;;17.33;;
20910;SDS011;10615;42.702;23.314;2023-04-10T06:02:47;32.45;;;29.02;;
20910;SDS011;10615;42.702;23.314;2023-04-10T06:03:48;21.85;;;19.40;;
20910;SDS011;10615;42.702;23.314;2023-04-10T06:04:49;31.73;;;28.35;;
20910;SDS011;10615;42.702;23.314;2023-04-10T06:05:50;21.98;;;19.20;;
20910;SDS011;10615;42.702;23.314;2023-04-10T06:06:51;62.55;;;54.55;;
20910;SDS011;10615;42.702;23.314;2023-04-10T06:07:51;16.33;;;14.63;;
20910;SDS011;10615;42.702;23.314;2023-04-10T06:08:52;15.88;;;12.27;;
20910;SDS011;10615;42.702;23.314;2023-04-10T06:09:52;13.13;;;11.82;;
20910;SDS011;10615;42.702;23.314;2023-04-10T06:10:53;13.40;;;12.05;;
20910;SDS011;10615;42.702;23.314;2023-04-10T06:11:54;13.43;;;12.13;;
20910;SDS011;10615;42.702;23.314;2023-04-10T06:12:55;13.98;;;12.57;;
20910;SDS011;10615;42.702;23.314;2023-04-10T06:13:56;12.48;;;11.20;;